createdAt,value
2018-12-23T00:00:40.136Z,8.17
2018-12-23T00:01:40.117Z,8.09
2018-12-23T00:02:40.124Z,8.03
2018-12-23T00:03:40.101Z,8.04
2018-12-23T00:04:40.086Z,8.04
2018-12-23T00:05:40.081Z,8.04
2018-12-23T00:06:40.063Z,7.91
2018-12-23T00:07:40.086Z,8.02
2018-12-23T00:08:40.057Z,8.06
2018-12-23T00:09:40.043Z,8.09
2018-12-23T00:10:40.033Z,8.00
2018-12-23T00:11:40.007Z,7.99
2018-12-23T00:12:40.012Z,7.96
2018-12-23T00:13:39.995Z,7.99
2018-12-23T00:14:39.984Z,7.95
2018-12-23T00:15:39.971Z,8.03
2018-12-23T00:16:39.966Z,7.94
2018-12-23T00:17:39.946Z,8.00
2018-12-23T00:18:39.976Z,7.91
2018-12-23T00:19:39.931Z,7.86
2018-12-23T00:20:39.911Z,7.94
2018-12-23T00:21:39.896Z,7.96
2018-12-23T00:22:39.891Z,7.91
2018-12-23T00:23:39.910Z,7.94
2018-12-23T00:24:39.902Z,7.94
2018-12-23T00:25:39.869Z,7.84
2018-12-23T00:26:39.840Z,7.82
2018-12-23T00:27:39.832Z,7.84
2018-12-23T00:28:39.855Z,7.81
2018-12-23T00:29:39.824Z,7.86
2018-12-23T00:30:39.821Z,7.85
2018-12-23T00:31:39.801Z,7.82
2018-12-23T00:32:39.790Z,7.81
2018-12-23T00:33:39.805Z,7.81
2018-12-23T00:34:39.791Z,7.82
2018-12-23T00:35:39.758Z,7.84
2018-12-23T00:36:39.741Z,7.85
2018-12-23T00:37:39.732Z,7.76
2018-12-23T00:38:39.737Z,7.74
2018-12-23T00:39:39.742Z,7.77
2018-12-23T00:40:39.695Z,7.69
2018-12-23T00:41:39.679Z,7.66
2018-12-23T00:42:39.672Z,7.70
2018-12-23T00:43:39.690Z,7.69
2018-12-23T00:44:39.674Z,7.66
2018-12-23T00:45:39.658Z,7.67
2018-12-23T00:46:39.639Z,7.62
2018-12-23T00:47:39.634Z,7.57
2018-12-23T00:48:39.628Z,7.54
2018-12-23T00:49:39.602Z,7.62
2018-12-23T00:50:39.594Z,7.67
2018-12-23T00:51:39.587Z,7.70
2018-12-23T00:52:39.574Z,7.63
2018-12-23T00:53:39.577Z,7.71
2018-12-23T00:54:39.547Z,7.71
2018-12-23T00:55:39.535Z,7.74
2018-12-23T00:56:39.528Z,7.76
2018-12-23T00:57:39.508Z,7.71
2018-12-23T00:58:39.527Z,7.85
2018-12-23T00:59:39.496Z,7.76
2018-12-23T01:00:39.485Z,7.79
2018-12-23T01:01:39.472Z,7.74
2018-12-23T01:02:39.453Z,7.79
2018-12-23T01:03:39.469Z,7.85
2018-12-23T01:04:39.443Z,7.79
2018-12-23T01:05:39.416Z,7.79
2018-12-23T01:06:39.424Z,7.81
2018-12-23T01:07:39.401Z,7.82
2018-12-23T01:08:39.406Z,7.84
2018-12-23T01:09:39.388Z,7.84
2018-12-23T01:10:39.393Z,7.84
2018-12-23T01:11:39.361Z,7.81
2018-12-23T01:12:39.365Z,7.86
2018-12-23T01:13:39.357Z,7.88
2018-12-23T01:14:39.329Z,7.85
2018-12-23T01:15:39.328Z,7.82
2018-12-23T01:16:39.309Z,7.84
2018-12-23T01:17:39.298Z,7.89
2018-12-23T01:18:39.311Z,7.94
2018-12-23T01:19:39.282Z,7.84
2018-12-23T01:20:39.262Z,7.95
2018-12-23T01:22:48.769Z,7.92
2018-12-23T01:23:49.762Z,7.85
2018-12-23T01:24:49.719Z,7.77
2018-12-23T01:25:49.714Z,7.79
2018-12-23T01:26:49.700Z,7.86
2018-12-23T01:27:49.680Z,7.84
2018-12-23T01:28:49.702Z,7.81
2018-12-23T01:29:49.671Z,7.86
2018-12-23T01:30:49.664Z,7.91
2018-12-23T01:31:49.655Z,7.84
2018-12-23T01:32:49.630Z,7.94
2018-12-23T01:33:49.689Z,7.95
2018-12-23T01:34:49.615Z,7.91
2018-12-23T01:35:49.606Z,7.89
2018-12-23T01:36:49.590Z,7.89
2018-12-23T01:37:49.585Z,7.91
2018-12-23T01:38:49.585Z,7.91
2018-12-23T01:39:49.560Z,7.89
2018-12-23T01:40:49.551Z,7.89
2018-12-23T01:41:49.550Z,7.91
2018-12-23T01:42:49.530Z,7.91
2018-12-23T01:43:49.550Z,7.84
2018-12-23T01:44:49.503Z,7.91
2018-12-23T01:45:49.487Z,7.94
2018-12-23T01:46:49.485Z,7.91
2018-12-23T01:47:49.465Z,7.84
2018-12-23T01:48:49.490Z,7.94
2018-12-23T01:49:49.462Z,7.84
2018-12-23T01:50:49.446Z,7.89
2018-12-23T01:51:49.437Z,7.81
2018-12-23T01:52:49.438Z,7.84
2018-12-23T01:53:49.426Z,7.84
2018-12-23T01:54:49.411Z,7.84
2018-12-23T01:55:49.388Z,7.79
2018-12-23T01:56:49.373Z,7.84
2018-12-23T01:57:49.374Z,7.89
2018-12-23T01:58:49.384Z,7.88
2018-12-23T01:59:49.349Z,7.94
2018-12-23T02:00:49.333Z,7.89
2018-12-23T02:01:49.333Z,7.95
2018-12-23T02:02:49.319Z,7.92
2018-12-23T02:03:49.318Z,7.86
2018-12-23T02:04:49.289Z,7.86
2018-12-23T02:05:49.283Z,7.81
2018-12-23T02:06:49.264Z,7.84
2018-12-23T02:07:49.259Z,7.81
2018-12-23T02:08:49.277Z,7.84
2018-12-23T02:09:49.241Z,7.91
2018-12-23T02:10:49.327Z,7.79
2018-12-23T02:11:49.218Z,7.84
2018-12-23T02:12:49.208Z,7.88
2018-12-23T02:13:49.208Z,7.86
2018-12-23T02:14:49.180Z,7.99
2018-12-23T02:15:49.161Z,7.92
2018-12-23T02:16:49.160Z,7.94
2018-12-23T02:17:49.157Z,8.03
2018-12-23T02:18:49.159Z,7.89
2018-12-23T02:19:49.149Z,8.04
2018-12-23T02:20:49.106Z,7.99
2018-12-23T02:21:49.104Z,7.95
2018-12-23T02:22:49.097Z,8.02
2018-12-23T02:23:49.113Z,7.94
2018-12-23T02:24:49.078Z,8.00
2018-12-23T02:25:49.065Z,8.00
2018-12-23T02:26:49.063Z,8.03
2018-12-23T02:27:49.031Z,7.99
2018-12-23T02:28:49.022Z,8.06
2018-12-23T02:29:49.023Z,8.00
2018-12-23T02:30:49.007Z,8.04
2018-12-23T02:31:48.996Z,8.03
2018-12-23T02:32:48.982Z,8.06
2018-12-23T02:33:48.978Z,8.06
2018-12-23T02:34:48.995Z,8.00
2018-12-23T02:35:55.382Z,7.96
2018-12-23T02:36:48.946Z,8.07
2018-12-23T02:37:48.926Z,8.04
2018-12-23T02:38:48.918Z,8.04
2018-12-23T02:39:48.924Z,8.03
2018-12-23T02:40:48.892Z,8.09
2018-12-23T02:41:48.895Z,8.12
2018-12-23T02:42:48.875Z,8.04
2018-12-23T02:43:48.867Z,7.96
2018-12-23T02:44:48.886Z,8.04
2018-12-23T02:45:48.846Z,8.04
2018-12-23T02:46:48.834Z,8.12
2018-12-23T02:47:48.970Z,8.04
2018-12-23T02:48:48.819Z,8.03
2018-12-23T02:49:48.835Z,8.10
2018-12-23T02:50:48.795Z,8.04
2018-12-23T02:51:48.785Z,8.06
2018-12-23T02:52:48.766Z,8.02
2018-12-23T02:53:48.770Z,8.07
2018-12-23T02:54:48.821Z,8.02
2018-12-23T02:55:48.743Z,8.00
2018-12-23T02:56:48.747Z,8.10
2018-12-23T02:57:48.713Z,8.13
2018-12-23T02:58:48.707Z,8.07
2018-12-23T02:59:48.723Z,8.06
2018-12-23T03:00:48.687Z,8.06
2018-12-23T03:01:48.678Z,8.06
2018-12-23T03:02:48.658Z,8.04
2018-12-23T03:03:48.649Z,8.00
2018-12-23T03:04:48.663Z,8.07
2018-12-23T03:05:48.642Z,8.04
2018-12-23T03:06:48.630Z,8.04
2018-12-23T03:07:48.612Z,8.00
2018-12-23T03:08:48.610Z,8.03
2018-12-23T03:09:48.613Z,8.09
2018-12-23T03:10:48.579Z,8.06
2018-12-23T03:11:48.562Z,8.09
2018-12-23T03:12:48.563Z,8.06
2018-12-23T03:13:48.568Z,8.07
2018-12-23T03:14:48.554Z,8.12
2018-12-23T03:15:48.616Z,8.14
2018-12-23T03:16:48.526Z,8.09
2018-12-23T03:17:48.513Z,8.06
2018-12-23T03:18:48.504Z,8.02
2018-12-23T03:19:48.511Z,8.07
2018-12-23T03:20:48.482Z,8.10
2018-12-23T03:21:48.455Z,8.09
2018-12-23T03:23:57.647Z,8.20
2018-12-23T03:24:58.663Z,8.22
2018-12-23T03:25:58.629Z,8.13
2018-12-23T03:26:58.613Z,8.07
2018-12-23T03:27:58.614Z,8.09
2018-12-23T03:28:58.594Z,8.09
2018-12-23T03:29:58.613Z,8.13
2018-12-23T03:30:58.592Z,8.14
2018-12-23T03:31:58.569Z,8.04
2018-12-23T03:32:58.544Z,8.12
2018-12-23T03:33:58.550Z,8.12
2018-12-23T03:34:58.533Z,8.10
2018-12-23T03:35:58.561Z,8.17
2018-12-23T03:36:58.516Z,8.07
2018-12-23T03:37:58.495Z,8.10
2018-12-23T03:38:58.485Z,8.10
2018-12-23T03:39:58.480Z,8.14
2018-12-23T03:40:58.490Z,8.14
2018-12-23T03:41:58.455Z,8.13
2018-12-23T03:42:58.446Z,8.13
2018-12-23T03:43:58.439Z,8.14
2018-12-23T03:44:58.429Z,8.20
2018-12-23T03:45:58.419Z,8.14
2018-12-23T03:46:58.409Z,8.18
2018-12-23T03:47:58.385Z,8.13
2018-12-23T03:48:58.368Z,8.18
2018-12-23T03:49:58.356Z,8.20
2018-12-23T03:50:58.367Z,8.18
2018-12-23T03:51:58.353Z,8.17
2018-12-23T03:52:58.328Z,8.12
2018-12-23T03:53:58.335Z,8.14
2018-12-23T03:54:58.304Z,8.14
2018-12-23T03:55:58.324Z,8.14
2018-12-23T03:56:58.296Z,8.20
2018-12-23T03:57:58.282Z,8.12
2018-12-23T03:58:58.283Z,8.21
2018-12-23T03:59:58.251Z,8.13
2018-12-23T04:00:58.265Z,8.24
2018-12-23T04:01:58.227Z,8.22
2018-12-23T04:02:58.219Z,8.07
2018-12-23T04:03:58.213Z,8.17
2018-12-23T04:04:58.203Z,8.18
2018-12-23T04:05:58.206Z,8.18
2018-12-23T04:06:58.186Z,8.18
2018-12-23T04:07:58.162Z,8.20
2018-12-23T04:08:58.158Z,8.21
2018-12-23T04:09:58.136Z,8.17
2018-12-23T04:10:58.155Z,8.22
2018-12-23T04:11:58.131Z,8.22
2018-12-23T04:12:58.114Z,8.20
2018-12-23T04:13:58.097Z,8.24
2018-12-23T04:14:58.088Z,8.21
2018-12-23T04:15:58.093Z,8.18
2018-12-23T04:16:58.101Z,8.24
2018-12-23T04:17:58.065Z,8.25
2018-12-23T04:18:58.045Z,8.20
2018-12-23T04:19:58.042Z,8.25
2018-12-23T04:20:58.032Z,8.22
2018-12-23T04:21:58.022Z,8.28
2018-12-23T04:22:58.005Z,8.18
2018-12-23T04:23:57.996Z,8.17
2018-12-23T04:24:57.984Z,8.25
2018-12-23T04:25:57.975Z,8.17
2018-12-23T04:26:57.999Z,8.22
2018-12-23T04:27:57.954Z,8.27
2018-12-23T04:28:57.929Z,8.21
2018-12-23T04:29:57.933Z,8.24
2018-12-23T04:30:57.913Z,8.22
2018-12-23T04:31:57.922Z,8.14
2018-12-23T04:32:57.900Z,8.21
2018-12-23T04:33:57.886Z,8.20
2018-12-23T04:34:57.878Z,8.21
2018-12-23T04:35:57.968Z,8.31
2018-12-23T04:36:57.917Z,8.21
2018-12-23T04:37:57.849Z,8.22
2018-12-23T04:38:57.828Z,8.31
2018-12-23T04:39:57.814Z,8.27
2018-12-23T04:40:57.799Z,8.25
2018-12-23T04:41:57.806Z,8.27
2018-12-23T04:42:57.784Z,8.22
2018-12-23T04:43:57.771Z,8.22
2018-12-23T04:44:57.754Z,8.27
2018-12-23T04:45:57.766Z,8.27
2018-12-23T04:46:57.783Z,8.21
2018-12-23T04:47:57.733Z,8.21
2018-12-23T04:48:57.733Z,8.22
2018-12-23T04:49:57.713Z,8.22
2018-12-23T04:50:57.695Z,8.31
2018-12-23T04:51:57.711Z,8.18
2018-12-23T04:52:57.684Z,8.22
2018-12-23T04:53:57.664Z,8.27
2018-12-23T04:54:57.658Z,8.22
2018-12-23T04:55:57.661Z,8.27
2018-12-23T04:56:57.653Z,8.27
2018-12-23T04:57:57.626Z,8.21
2018-12-23T04:58:57.608Z,8.22
2018-12-23T04:59:57.606Z,8.22
2018-12-23T05:00:57.591Z,8.18
2018-12-23T05:01:57.602Z,8.12
2018-12-23T05:02:57.581Z,8.18
2018-12-23T05:03:57.562Z,8.18
2018-12-23T05:04:57.538Z,8.14
2018-12-23T05:05:57.563Z,8.24
2018-12-23T05:06:57.555Z,8.20
2018-12-23T05:07:57.516Z,8.20
2018-12-23T05:08:57.517Z,8.13
2018-12-23T05:09:57.524Z,8.13
2018-12-23T05:10:57.477Z,8.22
2018-12-23T05:11:57.492Z,8.24
2018-12-23T05:12:57.464Z,8.18
2018-12-23T05:13:57.463Z,8.21
2018-12-23T05:14:57.427Z,8.22
2018-12-23T05:15:57.419Z,8.14
2018-12-23T05:16:57.436Z,8.20
2018-12-23T05:17:57.401Z,8.20
2018-12-23T05:18:57.397Z,8.20
2018-12-23T05:19:57.446Z,8.18
2018-12-23T05:20:57.379Z,8.18
2018-12-23T05:21:57.384Z,8.17
2018-12-23T05:22:57.348Z,8.14
2018-12-23T05:25:06.559Z,8.18
2018-12-23T05:26:07.519Z,8.13
2018-12-23T05:27:07.525Z,8.13
2018-12-23T05:28:07.490Z,8.07
2018-12-23T05:29:07.484Z,8.04
2018-12-23T05:30:07.471Z,8.07
2018-12-23T05:31:07.464Z,8.10
2018-12-23T05:32:07.469Z,8.09
2018-12-23T05:33:07.469Z,8.12
2018-12-23T05:34:07.425Z,8.13
2018-12-23T05:35:07.419Z,8.13
2018-12-23T05:36:07.422Z,8.12
2018-12-23T05:37:07.427Z,8.09
2018-12-23T05:38:07.383Z,8.09
2018-12-23T05:39:07.376Z,8.13
2018-12-23T05:40:07.385Z,8.10
2018-12-23T05:41:07.350Z,8.10
2018-12-23T05:42:07.369Z,8.10
2018-12-23T05:43:07.342Z,8.06
2018-12-23T05:44:07.325Z,8.09
2018-12-23T05:45:07.314Z,8.06
2018-12-23T05:46:07.310Z,8.06
2018-12-23T05:47:07.306Z,8.14
2018-12-23T05:48:07.281Z,8.13
2018-12-23T05:49:07.269Z,8.14
2018-12-23T05:50:07.270Z,8.14
2018-12-23T05:51:07.246Z,8.12
2018-12-23T05:52:07.252Z,8.18
2018-12-23T05:53:07.263Z,8.18
2018-12-23T05:54:07.217Z,8.21
2018-12-23T05:55:07.204Z,8.12
2018-12-23T05:56:07.199Z,8.10
2018-12-23T05:57:07.207Z,8.20
2018-12-23T05:58:07.159Z,8.14
2018-12-23T05:59:07.155Z,8.10
2018-12-23T06:00:07.151Z,8.18
2018-12-23T06:01:07.788Z,8.14
2018-12-23T06:02:07.139Z,8.13
2018-12-23T06:03:07.113Z,8.17
2018-12-23T06:04:07.096Z,8.12
2018-12-23T06:05:07.097Z,8.09
2018-12-23T06:06:07.082Z,8.12
2018-12-23T06:07:07.088Z,8.06
2018-12-23T06:08:07.050Z,8.06
2018-12-23T06:09:07.046Z,8.10
2018-12-23T06:10:07.031Z,8.12
2018-12-23T06:11:07.026Z,8.10
2018-12-23T06:12:07.010Z,8.14
2018-12-23T06:13:07.020Z,8.07
2018-12-23T06:14:06.983Z,8.14
2018-12-23T06:15:06.991Z,8.18
2018-12-23T06:16:06.970Z,8.10
2018-12-23T06:17:06.963Z,8.24
2018-12-23T06:18:06.966Z,8.25
2018-12-23T06:19:06.943Z,8.21
2018-12-23T06:20:06.928Z,8.14
2018-12-23T06:21:06.913Z,8.17
2018-12-23T06:22:06.905Z,8.21
2018-12-23T06:23:06.916Z,8.17
2018-12-23T06:24:06.896Z,8.12
2018-12-23T06:25:06.871Z,8.20
2018-12-23T06:26:06.862Z,8.14
2018-12-23T06:27:06.861Z,8.24
2018-12-23T06:28:06.868Z,8.22
2018-12-23T06:29:06.842Z,8.14
2018-12-23T06:30:06.822Z,8.13
2018-12-23T06:31:06.807Z,8.17
2018-12-23T06:32:06.801Z,8.13
2018-12-23T06:33:06.800Z,8.21
2018-12-23T06:34:06.796Z,8.20
2018-12-23T06:35:06.779Z,8.20
2018-12-23T06:36:06.747Z,8.21
2018-12-23T06:37:10.219Z,8.09
2018-12-23T06:38:06.768Z,8.20
2018-12-23T06:39:06.720Z,8.14
2018-12-23T06:40:06.713Z,8.14
2018-12-23T06:41:06.688Z,8.07
2018-12-23T06:42:06.689Z,8.10
2018-12-23T06:43:06.699Z,8.13
2018-12-23T06:44:06.689Z,8.18
2018-12-23T06:45:06.653Z,8.17
2018-12-23T06:46:06.645Z,8.09
2018-12-23T06:47:06.632Z,8.17
2018-12-23T06:48:06.630Z,8.06
2018-12-23T06:49:06.624Z,8.07
2018-12-23T06:50:06.602Z,8.09
2018-12-23T06:51:06.590Z,8.04
2018-12-23T06:52:06.580Z,8.17
2018-12-23T06:53:06.587Z,8.10
2018-12-23T06:54:06.557Z,8.13
2018-12-23T06:55:06.543Z,8.14
2018-12-23T06:56:06.524Z,8.10
2018-12-23T06:57:06.512Z,8.13
2018-12-23T06:58:06.533Z,8.20
2018-12-23T06:59:06.502Z,8.27
2018-12-23T07:00:06.482Z,8.21
2018-12-23T07:01:06.482Z,8.17
2018-12-23T07:02:06.475Z,8.21
2018-12-23T07:03:06.480Z,8.27
2018-12-23T07:04:06.456Z,8.13
2018-12-23T07:05:06.433Z,8.24
2018-12-23T07:06:06.419Z,8.21
2018-12-23T07:07:06.427Z,8.21
2018-12-23T07:08:06.424Z,8.22
2018-12-23T07:09:06.394Z,8.14
2018-12-23T07:10:06.399Z,8.12
2018-12-23T07:11:06.362Z,8.14
2018-12-23T07:12:06.363Z,8.18
2018-12-23T07:13:06.363Z,8.21
2018-12-23T07:14:06.350Z,8.17
2018-12-23T07:15:06.329Z,8.17
2018-12-23T07:16:06.305Z,8.20
2018-12-23T07:17:06.322Z,8.20
2018-12-23T07:18:06.309Z,8.21
2018-12-23T07:19:06.277Z,8.22
2018-12-23T07:20:06.277Z,8.18
2018-12-23T07:21:06.267Z,8.18
2018-12-23T07:22:06.258Z,8.22
2018-12-23T07:23:06.265Z,8.20
2018-12-23T07:24:06.255Z,8.22
2018-12-23T07:26:15.425Z,8.18
2018-12-23T07:27:16.383Z,8.20
2018-12-23T07:28:16.409Z,8.18
2018-12-23T07:29:16.360Z,8.20
2018-12-23T07:30:16.364Z,8.18
2018-12-23T07:31:16.340Z,8.14
2018-12-23T07:32:16.347Z,8.18
2018-12-23T07:33:16.342Z,8.09
2018-12-23T07:34:16.321Z,8.17
2018-12-23T07:35:16.306Z,8.12
2018-12-23T07:36:16.312Z,8.24
2018-12-23T07:37:16.291Z,8.18
2018-12-23T07:38:16.300Z,8.13
2018-12-23T07:39:16.257Z,8.14
2018-12-23T07:40:16.250Z,8.14
2018-12-23T07:41:16.241Z,8.14
2018-12-23T07:42:16.218Z,8.17
2018-12-23T07:43:16.231Z,8.24
2018-12-23T07:44:16.212Z,8.18
2018-12-23T07:45:16.190Z,8.24
2018-12-23T07:46:16.183Z,8.14
2018-12-23T07:47:16.179Z,8.14
2018-12-23T07:48:17.174Z,8.17
2018-12-23T07:49:16.160Z,8.18
2018-12-23T07:50:16.137Z,8.18
2018-12-23T07:51:16.133Z,8.18
2018-12-23T07:52:16.124Z,8.09
2018-12-23T07:53:16.110Z,8.17
2018-12-23T07:54:16.233Z,8.20
2018-12-23T07:55:16.086Z,8.14
2018-12-23T07:56:16.067Z,8.14
2018-12-23T07:57:16.075Z,8.14
2018-12-23T07:58:16.061Z,8.14
2018-12-23T07:59:16.059Z,8.17
2018-12-23T08:00:16.044Z,8.17
2018-12-23T08:01:16.014Z,8.14
2018-12-23T08:02:16.023Z,8.14
2018-12-23T08:03:15.987Z,8.13
2018-12-23T08:04:16.036Z,8.14
2018-12-23T08:05:16.001Z,8.14
2018-12-23T08:06:15.987Z,8.17
2018-12-23T08:07:15.966Z,8.18
2018-12-23T08:08:15.959Z,8.21
2018-12-23T08:09:15.926Z,8.22
2018-12-23T08:10:15.939Z,8.17
2018-12-23T08:11:15.909Z,8.21
2018-12-23T08:12:15.905Z,8.21
2018-12-23T08:13:15.892Z,8.14
2018-12-23T08:14:15.901Z,8.24
2018-12-23T08:15:15.882Z,8.24
2018-12-23T08:16:15.849Z,8.25
2018-12-23T08:17:15.841Z,8.22
2018-12-23T08:18:15.836Z,8.22
2018-12-23T08:19:15.817Z,8.20
2018-12-23T08:20:15.838Z,8.21
2018-12-23T08:21:15.798Z,8.29
2018-12-23T08:22:15.790Z,8.25
2018-12-23T08:23:15.785Z,8.34
2018-12-23T08:24:15.756Z,8.27
2018-12-23T08:25:15.778Z,8.31
2018-12-23T08:26:15.752Z,8.31
2018-12-23T08:27:15.739Z,8.25
2018-12-23T08:28:15.719Z,8.31
2018-12-23T08:29:15.717Z,8.32
2018-12-23T08:30:15.725Z,8.28
2018-12-23T08:31:15.681Z,8.28
2018-12-23T08:32:15.691Z,8.27
2018-12-23T08:33:15.682Z,8.28
2018-12-23T08:34:15.652Z,8.31
2018-12-23T08:35:15.661Z,8.27
2018-12-23T08:36:15.637Z,8.27
2018-12-23T08:37:15.618Z,8.25
2018-12-23T08:38:15.618Z,8.28
2018-12-23T08:39:15.609Z,8.29
2018-12-23T08:40:15.614Z,8.34
2018-12-23T08:41:15.579Z,8.25
2018-12-23T08:42:15.572Z,8.20
2018-12-23T08:43:15.551Z,8.29
2018-12-23T08:44:15.538Z,8.28
2018-12-23T08:45:15.561Z,8.31
2018-12-23T08:46:15.539Z,8.31
2018-12-23T08:47:15.518Z,8.29
2018-12-23T08:48:15.491Z,8.31
2018-12-23T08:49:15.483Z,8.32
2018-12-23T08:50:15.518Z,8.32
2018-12-23T08:51:15.473Z,8.27
2018-12-23T08:52:15.454Z,8.32
2018-12-23T08:53:15.442Z,8.25
2018-12-23T08:54:15.435Z,8.34
2018-12-23T08:55:15.455Z,8.40
2018-12-23T08:56:15.428Z,8.37
2018-12-23T08:57:15.406Z,8.36
2018-12-23T08:58:15.391Z,8.37
2018-12-23T08:59:15.400Z,8.32
2018-12-23T09:00:15.397Z,8.40
2018-12-23T09:01:15.354Z,8.40
2018-12-23T09:02:15.341Z,8.37
2018-12-23T09:03:18.944Z,8.32
2018-12-23T09:04:15.322Z,8.43
2018-12-23T09:05:15.340Z,8.43
2018-12-23T09:06:15.304Z,8.40
2018-12-23T09:07:15.282Z,8.46
2018-12-23T09:08:15.281Z,8.42
2018-12-23T09:09:15.267Z,8.46
2018-12-23T09:10:15.280Z,8.42
2018-12-23T09:11:15.251Z,8.42
2018-12-23T09:12:15.239Z,8.45
2018-12-23T09:13:15.214Z,8.45
2018-12-23T09:14:15.210Z,8.46
2018-12-23T09:15:15.230Z,8.40
2018-12-23T09:16:15.202Z,8.43
2018-12-23T09:17:15.182Z,8.50
2018-12-23T09:18:19.309Z,8.49
2018-12-23T09:19:15.158Z,8.46
2018-12-23T09:20:15.173Z,8.42
2018-12-23T09:21:15.149Z,8.52
2018-12-23T09:22:15.128Z,8.46
2018-12-23T09:23:15.109Z,8.43
2018-12-23T09:24:15.100Z,8.45
2018-12-23T09:25:15.117Z,8.50
2018-12-23T09:27:24.276Z,8.55
2018-12-23T09:28:25.261Z,8.57
2018-12-23T09:29:25.275Z,8.50
2018-12-23T09:30:25.258Z,8.54
2018-12-23T09:31:25.226Z,8.50
2018-12-23T09:32:25.206Z,8.57
2018-12-23T09:33:25.207Z,8.55
2018-12-23T09:34:25.190Z,8.54
2018-12-23T09:35:25.342Z,8.50
2018-12-23T09:36:25.182Z,8.50
2018-12-23T09:37:25.162Z,8.60
2018-12-23T09:38:25.142Z,8.50
2018-12-23T09:39:25.127Z,8.64
2018-12-23T09:40:25.151Z,8.58
2018-12-23T09:41:25.116Z,8.60
2018-12-23T09:42:25.110Z,8.58
2018-12-23T09:43:25.101Z,8.67
2018-12-23T09:44:25.085Z,8.63
2018-12-23T09:45:25.067Z,8.64
2018-12-23T09:46:25.073Z,8.60
2018-12-23T09:47:25.053Z,8.64
2018-12-23T09:48:25.030Z,8.65
2018-12-23T09:49:25.030Z,8.61
2018-12-23T09:50:25.010Z,8.60
2018-12-23T09:51:25.026Z,8.61
2018-12-23T09:52:24.998Z,8.63
2018-12-23T09:53:24.986Z,8.64
2018-12-23T09:54:24.972Z,8.68
2018-12-23T09:55:24.966Z,8.64
2018-12-23T09:56:24.981Z,8.65
2018-12-23T09:57:24.945Z,8.76
2018-12-23T09:58:24.933Z,8.63
2018-12-23T09:59:24.916Z,8.67
2018-12-23T10:00:24.905Z,8.60
2018-12-23T10:01:24.934Z,8.73
2018-12-23T10:02:24.886Z,8.67
2018-12-23T10:03:24.863Z,8.75
2018-12-23T10:04:24.877Z,8.65
2018-12-23T10:05:24.851Z,8.61
2018-12-23T10:06:24.855Z,8.68
2018-12-23T10:07:24.839Z,8.64
2018-12-23T10:08:24.823Z,8.67
2018-12-23T10:09:24.816Z,8.60
2018-12-23T10:10:28.530Z,8.63
2018-12-23T10:11:24.810Z,8.73
2018-12-23T10:12:24.774Z,8.64
2018-12-23T10:13:24.769Z,8.67
2018-12-23T10:14:24.747Z,8.60
2018-12-23T10:15:24.745Z,8.65
2018-12-23T10:16:24.747Z,8.65
2018-12-23T10:17:24.718Z,8.60
2018-12-23T10:18:24.708Z,8.70
2018-12-23T10:19:24.710Z,8.60
2018-12-23T10:20:24.692Z,8.73
2018-12-23T10:21:24.703Z,8.65
2018-12-23T10:22:24.668Z,8.64
2018-12-23T10:23:24.657Z,8.61
2018-12-23T10:24:24.653Z,8.64
2018-12-23T10:25:24.627Z,8.63
2018-12-23T10:26:24.651Z,8.73
2018-12-23T10:27:24.609Z,8.64
2018-12-23T10:28:24.616Z,8.60
2018-12-23T10:29:24.592Z,8.63
2018-12-23T10:30:24.573Z,8.70
2018-12-23T10:31:24.583Z,8.61
2018-12-23T10:32:24.551Z,8.61
2018-12-23T10:33:24.543Z,8.67
2018-12-23T10:34:24.535Z,8.70
2018-12-23T10:35:24.514Z,8.70
2018-12-23T10:36:24.538Z,8.83
2018-12-23T10:37:24.503Z,8.73
2018-12-23T10:38:24.490Z,8.70
2018-12-23T10:39:24.470Z,8.73
2018-12-23T10:40:24.470Z,8.82
2018-12-23T10:41:24.491Z,8.78
2018-12-23T10:42:24.440Z,8.83
2018-12-23T10:43:24.428Z,8.79
2018-12-23T10:44:24.435Z,8.78
2018-12-23T10:45:24.425Z,8.78
2018-12-23T10:46:24.441Z,8.79
2018-12-23T10:47:24.404Z,8.71
2018-12-23T10:48:24.397Z,8.80
2018-12-23T10:49:24.369Z,8.76
2018-12-23T10:50:24.368Z,8.78
2018-12-23T10:51:24.381Z,8.80
2018-12-23T10:52:24.346Z,8.79
2018-12-23T10:53:24.319Z,8.79
2018-12-23T10:54:24.317Z,8.73
2018-12-23T10:55:24.301Z,8.80
2018-12-23T10:56:24.315Z,8.79
2018-12-23T10:57:24.295Z,8.82
2018-12-23T10:58:24.269Z,8.82
2018-12-23T10:59:24.265Z,8.79
2018-12-23T11:00:24.290Z,8.79
2018-12-23T11:01:24.262Z,8.76
2018-12-23T11:02:24.239Z,8.85
2018-12-23T11:03:24.212Z,8.83
2018-12-23T11:04:24.217Z,8.78
2018-12-23T11:05:24.198Z,8.83
2018-12-23T11:06:24.203Z,8.79
2018-12-23T11:07:24.174Z,8.73
2018-12-23T11:08:27.104Z,8.76
2018-12-23T11:09:24.151Z,8.79
2018-12-23T11:10:24.134Z,8.80
2018-12-23T11:11:24.144Z,8.75
2018-12-23T11:12:24.124Z,8.80
2018-12-23T11:13:24.117Z,8.78
2018-12-23T11:14:24.088Z,8.79
2018-12-23T11:15:24.089Z,8.79
2018-12-23T11:16:24.084Z,8.83
2018-12-23T11:17:24.061Z,8.80
2018-12-23T11:18:24.051Z,8.76
2018-12-23T11:19:24.039Z,8.73
2018-12-23T11:20:24.030Z,8.78
2018-12-23T11:21:24.013Z,8.85
2018-12-23T11:22:24.005Z,8.68
2018-12-23T11:23:24.004Z,8.76
2018-12-23T11:24:23.981Z,8.76
2018-12-23T11:25:23.981Z,8.78
2018-12-23T11:26:23.969Z,8.78
2018-12-23T11:28:33.180Z,8.80
2018-12-23T11:29:34.149Z,8.76
2018-12-23T11:30:34.128Z,8.80
2018-12-23T11:31:34.120Z,8.85
2018-12-23T11:32:34.127Z,8.83
2018-12-23T11:33:34.186Z,8.85
2018-12-23T11:34:34.100Z,8.89
2018-12-23T11:35:34.084Z,8.94
2018-12-23T11:36:34.067Z,8.91
2018-12-23T11:37:34.066Z,8.85
2018-12-23T11:38:35.610Z,8.78
2018-12-23T11:39:34.037Z,8.85
2018-12-23T11:40:34.021Z,8.86
2018-12-23T11:41:34.020Z,8.75
2018-12-23T11:42:34.012Z,8.83
2018-12-23T11:43:33.988Z,8.82
2018-12-23T11:44:34.003Z,8.82
2018-12-23T11:45:34.065Z,8.79
2018-12-23T11:46:33.954Z,8.89
2018-12-23T11:47:33.943Z,8.86
2018-12-23T11:48:33.942Z,8.93
2018-12-23T11:49:33.947Z,8.93
2018-12-23T11:50:33.918Z,8.91
2018-12-23T11:51:33.906Z,8.89
2018-12-23T11:52:33.911Z,8.91
2018-12-23T11:53:33.894Z,8.93
2018-12-23T11:54:33.891Z,8.89
2018-12-23T11:55:33.868Z,8.91
2018-12-23T11:56:33.841Z,8.89
2018-12-23T11:57:33.849Z,8.85
2018-12-23T11:58:33.827Z,8.89
2018-12-23T11:59:34.382Z,8.83
2018-12-23T12:00:33.832Z,8.89
2018-12-23T12:01:33.802Z,8.93
2018-12-23T12:02:33.785Z,8.93
2018-12-23T12:03:33.773Z,8.83
2018-12-23T12:04:33.787Z,8.83
2018-12-23T12:05:33.755Z,8.80
2018-12-23T12:06:33.738Z,8.78
2018-12-23T12:07:33.724Z,8.76
2018-12-23T12:08:33.709Z,8.79
2018-12-23T12:09:33.731Z,8.82
2018-12-23T12:10:33.706Z,8.83
2018-12-23T12:11:33.697Z,8.76
2018-12-23T12:12:33.692Z,8.82
2018-12-23T12:13:33.662Z,8.80
2018-12-23T12:14:33.679Z,8.76
2018-12-23T12:15:33.650Z,8.79
2018-12-23T12:16:33.634Z,8.79
2018-12-23T12:17:33.613Z,8.80
2018-12-23T12:18:33.610Z,8.80
2018-12-23T12:19:33.619Z,8.82
2018-12-23T12:20:33.583Z,8.71
2018-12-23T12:21:33.578Z,8.73
2018-12-23T12:22:33.573Z,8.78
2018-12-23T12:23:33.561Z,8.76
2018-12-23T12:24:33.560Z,8.76
2018-12-23T12:25:33.540Z,8.73
2018-12-23T12:26:33.524Z,8.73
2018-12-23T12:27:33.516Z,8.61
2018-12-23T12:28:33.503Z,8.71
2018-12-23T12:29:33.501Z,8.70
2018-12-23T12:30:33.472Z,8.75
2018-12-23T12:31:33.481Z,8.67
2018-12-23T12:32:33.484Z,8.60
2018-12-23T12:33:33.448Z,8.63
2018-12-23T12:34:33.453Z,8.70
2018-12-23T12:35:33.431Z,8.67
2018-12-23T12:36:33.432Z,8.64
2018-12-23T12:37:33.418Z,8.63
2018-12-23T12:38:33.396Z,8.68
2018-12-23T12:39:33.413Z,8.68
2018-12-23T12:40:33.374Z,8.75
2018-12-23T12:41:33.365Z,8.64
2018-12-23T12:42:33.350Z,8.63
2018-12-23T12:43:33.327Z,8.65
2018-12-23T12:44:33.357Z,8.64
2018-12-23T12:45:33.429Z,8.58
2018-12-23T12:46:33.301Z,8.63
2018-12-23T12:47:33.299Z,8.71
2018-12-23T12:48:33.274Z,8.61
2018-12-23T12:49:33.300Z,8.63
2018-12-23T12:50:33.262Z,8.58
2018-12-23T12:51:33.258Z,8.71
2018-12-23T12:52:33.236Z,8.64
2018-12-23T12:53:33.243Z,8.67
2018-12-23T12:54:33.227Z,8.61
2018-12-23T12:55:33.212Z,8.68
2018-12-23T12:56:33.200Z,8.63
2018-12-23T12:57:33.174Z,8.60
2018-12-23T12:58:33.166Z,8.76
2018-12-23T12:59:33.185Z,8.63
2018-12-23T13:00:33.144Z,8.60
2018-12-23T13:01:33.145Z,8.63
2018-12-23T13:02:33.150Z,8.55
2018-12-23T13:03:33.123Z,8.63
2018-12-23T13:04:33.132Z,8.60
2018-12-23T13:05:33.095Z,8.63
2018-12-23T13:06:33.075Z,8.46
2018-12-23T13:07:33.067Z,8.63
2018-12-23T13:08:33.074Z,8.65
2018-12-23T13:09:33.074Z,8.55
2018-12-23T13:10:33.059Z,8.49
2018-12-23T13:11:33.021Z,8.47
2018-12-23T13:12:33.020Z,8.47
2018-12-23T13:13:33.014Z,8.50
2018-12-23T13:14:32.989Z,8.45
2018-12-23T13:15:32.987Z,8.40
2018-12-23T13:16:32.979Z,8.42
2018-12-23T13:17:32.965Z,8.40
2018-12-23T13:18:32.949Z,8.32
2018-12-23T13:19:32.947Z,8.31
2018-12-23T13:20:32.955Z,8.37
2018-12-23T13:21:32.917Z,8.34
2018-12-23T13:22:32.913Z,8.36
2018-12-23T13:23:32.895Z,8.34
2018-12-23T13:24:32.879Z,8.40
2018-12-23T13:25:32.900Z,8.32